sensor_id;sensor_type;location;lat;lon;timestamp;pressure;altitude;pressure_sealevel;temperature;humidity
61769;BME280;47669;48.712;9.016;2022-12-29T00:02:12;96131.59;;;6.91;100.00
61769;BME280;47669;48.712;9.016;2022-12-29T00:04:37;96119.88;;;7.00;100.00
61769;BME280;47669;48.712;9.016;2022-12-29T00:07:03;96122.59;;;6.74;100.00
61769;BME280;47669;48.712;9.016;2022-12-29T00:09:32;96110.59;;;7.11;100.00
61769;BME280;47669;48.712;9.016;2022-12-29T00:11:58;96111.03;;;7.01;100.00
61769;BME280;47669;48.712;9.016;2022-12-29T00:14:24;96094.84;;;7.24;100.00
61769;BME280;47669;48.712;9.016;2022-12-29T00:17:07;96089.81;;;7.23;100.00
61769;BME280;47669;48.712;9.016;2022-12-29T00:19:33;96075.63;;;7.37;100.00
61769;BME280;47669;48.712;9.016;2022-12-29T00:22:31;96077.19;;;7.06;100.00
61769;BME280;47669;48.712;9.016;2022-12-29T00:25:15;96076.75;;;7.16;100.00
61769;BME280;47669;48.712;9.016;2022-12-29T00:27:59;96074.41;;;7.40;100.00
61769;BME280;47669;48.712;9.016;2022-12-29T00:30:43;96077.34;;;7.11;100.00
61769;BME280;47669;48.712;9.016;2022-12-29T00:33:31;96079.97;;;7.18;100.00
61769;BME280;47669;48.712;9.016;2022-12-29T00:36:38;96067.63;;;7.25;100.00
61769;BME280;47669;48.712;9.016;2022-12-29T00:39:12;96075.03;;;7.35;100.00
61769;BME280;47669;48.712;9.016;2022-12-29T00:41:56;96065.59;;;7.27;100.00
61769;BME280;47669;48.712;9.016;2022-12-29T00:44:39;96060.09;;;7.42;100.00
61769;BME280;47669;48.712;9.016;2022-12-29T00:47:05;96067.81;;;7.62;100.00
61769;BME280;47669;48.712;9.016;2022-12-29T00:49:30;96060.06;;;7.81;100.00
61769;BME280;47669;48.712;9.016;2022-12-29T00:51:58;96051.16;;;8.07;100.00
61769;BME280;47669;48.712;9.016;2022-12-29T00:54:24;96063.84;;;7.85;100.00
61769;BME280;47669;48.712;9.016;2022-12-29T00:56:51;96066.31;;;7.80;100.00
61769;BME280;47669;48.712;9.016;2022-12-29T00:59:17;96063.69;;;7.80;100.00
61769;BME280;47669;48.712;9.016;2022-12-29T01:01:44;96066.16;;;7.75;100.00
61769;BME280;47669;48.712;9.016;2022-12-29T01:04:10;96063.22;;;7.58;100.00
61769;BME280;47669;48.712;9.016;2022-12-29T01:06:37;96060.69;;;7.76;100.00
61769;BME280;47669;48.712;9.016;2022-12-29T01:09:03;96060.06;;;7.81;100.00
61769;BME280;47669;48.712;9.016;2022-12-29T01:11:47;96062.84;;;8.11;100.00
61769;BME280;47669;48.712;9.016;2022-12-29T01:14:12;96067.91;;;7.81;100.00
61769;BME280;47669;48.712;9.016;2022-12-29T01:16:37;96066.09;;;7.81;100.00
61769;BME280;47669;48.712;9.016;2022-12-29T01:19:03;96072.41;;;7.99;100.00
61769;BME280;47669;48.712;9.016;2022-12-29T01:21:29;96075.94;;;7.86;100.00
61769;BME280;47669;48.712;9.016;2022-12-29T01:23:54;96072.63;;;7.97;100.00
61769;BME280;47669;48.712;9.016;2022-12-29T01:26:19;96071.84;;;8.22;100.00
61769;BME280;47669;48.712;9.016;2022-12-29T01:28:45;96075.50;;;7.89;100.00
61769;BME280;47669;48.712;9.016;2022-12-29T01:31:12;96074.84;;;8.00;100.00
61769;BME280;47669;48.712;9.016;2022-12-29T01:33:39;96074.88;;;8.19;100.00
61769;BME280;47669;48.712;9.016;2022-12-29T01:36:06;96073.19;;;8.31;100.00
61769;BME280;47669;48.712;9.016;2022-12-29T01:38:32;96086.66;;;8.09;100.00
61769;BME280;47669;48.712;9.016;2022-12-29T01:40:58;96072.34;;;8.05;100.00
61769;BME280;47669;48.712;9.016;2022-12-29T01:49:12;96087.38;;;8.23;100.00
61769;BME280;47669;48.712;9.016;2022-12-29T01:52:00;96085.38;;;8.19;100.00
61769;BME280;47669;48.712;9.016;2022-12-29T01:54:39;96089.50;;;8.08;100.00
61769;BME280;47669;48.712;9.016;2022-12-29T01:57:09;96075.03;;;8.24;100.00
61769;BME280;47669;48.712;9.016;2022-12-29T01:59:39;96076.22;;;8.28;100.00
61769;BME280;47669;48.712;9.016;2022-12-29T02:02:07;96074.34;;;8.35;100.00
61769;BME280;47669;48.712;9.016;2022-12-29T02:04:33;96067.94;;;8.31;100.00
61769;BME280;47669;48.712;9.016;2022-12-29T02:07:09;96071.44;;;7.93;100.00
61769;BME280;47669;48.712;9.016;2022-12-29T02:09:36;96066.63;;;8.15;100.00
61769;BME280;47669;48.712;9.016;2022-12-29T02:12:02;96066.31;;;8.05;100.00
61769;BME280;47669;48.712;9.016;2022-12-29T02:14:28;96063.19;;;8.21;100.00
61769;BME280;47669;48.712;9.016;2022-12-29T02:22:52;96051.16;;;8.32;100.00
61769;BME280;47669;48.712;9.016;2022-12-29T02:31:22;96064.13;;;8.27;100.00
61769;BME280;47669;48.712;9.016;2022-12-29T02:39:16;96054.38;;;8.34;100.00
61769;BME280;47669;48.712;9.016;2022-12-29T02:44:46;96050.34;;;8.57;100.00
61769;BME280;47669;48.712;9.016;2022-12-29T02:50:14;96044.16;;;8.88;100.00
61769;BME280;47669;48.712;9.016;2022-12-29T02:52:51;96048.69;;;8.81;100.00
61769;BME280;47669;48.712;9.016;2022-12-29T02:55:19;96041.75;;;8.68;100.00
61769;BME280;47669;48.712;9.016;2022-12-29T02:57:44;96044.97;;;9.07;100.00
61769;BME280;47669;48.712;9.016;2022-12-29T03:00:14;96046.34;;;8.73;100.00
61769;BME280;47669;48.712;9.016;2022-12-29T03:03:11;96038.81;;;8.95;100.00
61769;BME280;47669;48.712;9.016;2022-12-29T03:06:08;96035.97;;;9.15;100.00
61769;BME280;47669;48.712;9.016;2022-12-29T03:08:50;96046.16;;;9.23;100.00
61769;BME280;47669;48.712;9.016;2022-12-29T03:11:18;96036.41;;;9.12;100.00
61769;BME280;47669;48.712;9.016;2022-12-29T03:16:59;96038.06;;;9.24;100.00
61769;BME280;47669;48.712;9.016;2022-12-29T03:19:35;96027.81;;;9.35;100.00
61769;BME280;47669;48.712;9.016;2022-12-29T03:22:03;96022.47;;;9.11;100.00
61769;BME280;47669;48.712;9.016;2022-12-29T03:24:50;96024.13;;;9.24;100.00
61769;BME280;47669;48.712;9.016;2022-12-29T03:27:21;96018.78;;;9.31;100.00
61769;BME280;47669;48.712;9.016;2022-12-29T03:29:54;96016.34;;;9.47;100.00
61769;BME280;47669;48.712;9.016;2022-12-29T03:32:25;96028.19;;;9.38;100.00
61769;BME280;47669;48.712;9.016;2022-12-29T03:34:52;96027.25;;;9.33;100.00
61769;BME280;47669;48.712;9.016;2022-12-29T03:37:22;96013.06;;;9.34;100.00
61769;BME280;47669;48.712;9.016;2022-12-29T03:39:49;96016.16;;;9.31;100.00
61769;BME280;47669;48.712;9.016;2022-12-29T03:42:18;96003.00;;;9.00;100.00
61769;BME280;47669;48.712;9.016;2022-12-29T03:44:45;96001.19;;;9.01;100.00
61769;BME280;47669;48.712;9.016;2022-12-29T03:47:12;96016.72;;;9.02;100.00
61769;BME280;47669;48.712;9.016;2022-12-29T03:49:38;96002.66;;;8.97;100.00
61769;BME280;47669;48.712;9.016;2022-12-29T03:52:04;95999.84;;;9.10;100.00
61769;BME280;47669;48.712;9.016;2022-12-29T03:54:30;95991.84;;;9.05;100.00
61769;BME280;47669;48.712;9.016;2022-12-29T03:56:55;95993.69;;;8.86;100.00
61769;BME280;47669;48.712;9.016;2022-12-29T03:59:20;96006.63;;;8.87;100.00
61769;BME280;47669;48.712;9.016;2022-12-29T04:01:46;96007.78;;;8.92;100.00
61769;BME280;47669;48.712;9.016;2022-12-29T04:04:11;95999.53;;;8.69;100.00
61769;BME280;47669;48.712;9.016;2022-12-29T04:06:36;95999.81;;;8.98;100.00
61769;BME280;47669;48.712;9.016;2022-12-29T04:09:02;95996.19;;;8.81;100.00
61769;BME280;47669;48.712;9.016;2022-12-29T04:11:27;96003.03;;;8.63;100.00
61769;BME280;47669;48.712;9.016;2022-12-29T04:13:53;95999.69;;;8.75;100.00
61769;BME280;47669;48.712;9.016;2022-12-29T04:16:18;95997.06;;;8.93;100.00
61769;BME280;47669;48.712;9.016;2022-12-29T04:18:43;96003.50;;;9.09;100.00
61769;BME280;47669;48.712;9.016;2022-12-29T04:21:09;96007.56;;;8.93;100.00
61769;BME280;47669;48.712;9.016;2022-12-29T04:23:36;96018.19;;;8.98;100.00
61769;BME280;47669;48.712;9.016;2022-12-29T04:26:03;96016.97;;;8.82;100.00
61769;BME280;47669;48.712;9.016;2022-12-29T04:28:30;96024.09;;;8.75;100.00
61769;BME280;47669;48.712;9.016;2022-12-29T04:30:55;96015.59;;;8.80;100.00
61769;BME280;47669;48.712;9.016;2022-12-29T04:33:21;96003.91;;;8.94;100.00
61769;BME280;47669;48.712;9.016;2022-12-29T04:35:47;96007.50;;;9.12;100.00
61769;BME280;47669;48.712;9.016;2022-12-29T04:38:13;95996.78;;;9.13;100.00
61769;BME280;47669;48.712;9.016;2022-12-29T04:40:40;95995.97;;;8.82;100.00
61769;BME280;47669;48.712;9.016;2022-12-29T04:43:06;95995.06;;;8.88;100.00
61769;BME280;47669;48.712;9.016;2022-12-29T04:45:32;95997.06;;;8.93;100.00
61769;BME280;47669;48.712;9.016;2022-12-29T04:47:57;95996.28;;;9.04;100.00
61769;BME280;47669;48.712;9.016;2022-12-29T04:50:22;96000.59;;;8.99;100.00
61769;BME280;47669;48.712;9.016;2022-12-29T04:52:47;96003.19;;;9.17;100.00
61769;BME280;47669;48.712;9.016;2022-12-29T04:55:13;96011.66;;;9.50;100.00
61769;BME280;47669;48.712;9.016;2022-12-29T04:57:38;96016.19;;;9.12;100.00
61769;BME280;47669;48.712;9.016;2022-12-29T05:00:04;96003.41;;;9.46;100.00
61769;BME280;47669;48.712;9.016;2022-12-29T05:02:30;95995.88;;;9.50;100.00
61769;BME280;47669;48.712;9.016;2022-12-29T05:04:55;95991.22;;;9.52;100.00
61769;BME280;47669;48.712;9.016;2022-12-29T05:07:20;95988.78;;;9.08;100.00
61769;BME280;47669;48.712;9.016;2022-12-29T05:09:45;95990.69;;;9.31;100.00
61769;BME280;47669;48.712;9.016;2022-12-29T05:12:11;96000.25;;;9.25;100.00
61769;BME280;47669;48.712;9.016;2022-12-29T05:14:36;95999.06;;;9.10;100.00
61769;BME280;47669;48.712;9.016;2022-12-29T05:17:01;96005.72;;;9.24;100.00
61769;BME280;47669;48.712;9.016;2022-12-29T05:19:27;95999.47;;;9.25;100.00
61769;BME280;47669;48.712;9.016;2022-12-29T05:21:52;96000.69;;;8.92;100.00
61769;BME280;47669;48.712;9.016;2022-12-29T05:24:17;95992.66;;;9.05;100.00
61769;BME280;47669;48.712;9.016;2022-12-29T05:26:43;95995.50;;;9.04;100.00
61769;BME280;47669;48.712;9.016;2022-12-29T05:29:08;96013.84;;;9.22;100.00
61769;BME280;47669;48.712;9.016;2022-12-29T05:31:33;96009.28;;;8.99;100.00
61769;BME280;47669;48.712;9.016;2022-12-29T05:34:00;96008.81;;;9.21;100.00
61769;BME280;47669;48.712;9.016;2022-12-29T05:36:26;96001.28;;;9.24;100.00
61769;BME280;47669;48.712;9.016;2022-12-29T05:38:51;96006.00;;;9.34;100.00
61769;BME280;47669;48.712;9.016;2022-12-29T05:41:16;96005.31;;;9.39;100.00
61769;BME280;47669;48.712;9.016;2022-12-29T05:43:42;95999.94;;;9.34;100.00
61769;BME280;47669;48.712;9.016;2022-12-29T05:46:07;95995.50;;;9.34;100.00
61769;BME280;47669;48.712;9.016;2022-12-29T05:48:32;95995.78;;;9.56;100.00
61769;BME280;47669;48.712;9.016;2022-12-29T05:50:57;95991.88;;;9.47;100.00
61769;BME280;47669;48.712;9.016;2022-12-29T05:53:23;95989.53;;;9.69;100.00
61769;BME280;47669;48.712;9.016;2022-12-29T05:55:49;95994.41;;;9.54;100.00
61769;BME280;47669;48.712;9.016;2022-12-29T05:58:15;95984.00;;;9.59;100.00
61769;BME280;47669;48.712;9.016;2022-12-29T06:00:41;95992.81;;;9.64;100.00
61769;BME280;47669;48.712;9.016;2022-12-29T06:03:06;95981.03;;;9.55;100.00
61769;BME280;47669;48.712;9.016;2022-12-29T06:05:31;95984.34;;;9.51;100.00
61769;BME280;47669;48.712;9.016;2022-12-29T06:07:57;95964.59;;;9.60;100.00
61769;BME280;47669;48.712;9.016;2022-12-29T06:10:22;95966.69;;;9.81;100.00
61769;BME280;47669;48.712;9.016;2022-12-29T06:12:47;95967.88;;;9.43;100.00
61769;BME280;47669;48.712;9.016;2022-12-29T06:15:13;95970.44;;;9.62;100.00
61769;BME280;47669;48.712;9.016;2022-12-29T06:17:39;95969.28;;;9.70;100.00
61769;BME280;47669;48.712;9.016;2022-12-29T06:20:05;95978.06;;;9.52;100.00
61769;BME280;47669;48.712;9.016;2022-12-29T06:22:30;95976.38;;;9.69;100.00
61769;BME280;47669;48.712;9.016;2022-12-29T06:24:55;95989.28;;;9.71;100.00
61769;BME280;47669;48.712;9.016;2022-12-29T06:27:21;95984.50;;;9.79;100.00
61769;BME280;47669;48.712;9.016;2022-12-29T06:29:46;95983.47;;;9.80;100.00
61769;BME280;47669;48.712;9.016;2022-12-29T06:32:11;95975.22;;;9.65;100.00
61769;BME280;47669;48.712;9.016;2022-12-29T06:34:37;95983.91;;;9.54;100.00
61769;BME280;47669;48.712;9.016;2022-12-29T06:37:02;95977.63;;;9.66;100.00
61769;BME280;47669;48.712;9.016;2022-12-29T06:39:28;95988.19;;;9.36;100.00
61769;BME280;47669;48.712;9.016;2022-12-29T06:41:53;95987.81;;;9.21;100.00
61769;BME280;47669;48.712;9.016;2022-12-29T06:44:20;95992.84;;;9.22;100.00
61769;BME280;47669;48.712;9.016;2022-12-29T06:46:46;95992.44;;;9.07;100.00
61769;BME280;47669;48.712;9.016;2022-12-29T06:49:11;95982.09;;;8.94;100.00
61769;BME280;47669;48.712;9.016;2022-12-29T06:51:37;95978.97;;;8.85;100.00
61769;BME280;47669;48.712;9.016;2022-12-29T06:54:02;95975.97;;;8.81;100.00
61769;BME280;47669;48.712;9.016;2022-12-29T06:56:27;95979.88;;;8.60;100.00
61769;BME280;47669;48.712;9.016;2022-12-29T06:58:53;95985.56;;;8.57;100.00
61769;BME280;47669;48.712;9.016;2022-12-29T07:01:18;95990.75;;;8.64;100.00
61769;BME280;47669;48.712;9.016;2022-12-29T07:03:43;95984.22;;;8.48;100.00
61769;BME280;47669;48.712;9.016;2022-12-29T07:06:09;95981.09;;;8.39;100.00
61769;BME280;47669;48.712;9.016;2022-12-29T07:08:34;95971.84;;;8.55;100.00
61769;BME280;47669;48.712;9.016;2022-12-29T07:11:00;95986.88;;;8.23;100.00
61769;BME280;47669;48.712;9.016;2022-12-29T07:13:25;95986.84;;;8.29;100.00
61769;BME280;47669;48.712;9.016;2022-12-29T07:15:50;95983.13;;;8.37;100.00
61769;BME280;47669;48.712;9.016;2022-12-29T07:18:15;95984.22;;;8.29;100.00
61769;BME280;47669;48.712;9.016;2022-12-29T07:20:41;95994.16;;;8.21;100.00
61769;BME280;47669;48.712;9.016;2022-12-29T07:23:06;95986.66;;;8.24;100.00
61769;BME280;47669;48.712;9.016;2022-12-29T07:25:31;95989.13;;;8.01;100.00
61769;BME280;47669;48.712;9.016;2022-12-29T07:27:56;95989.50;;;8.23;100.00
61769;BME280;47669;48.712;9.016;2022-12-29T07:30:22;95998.09;;;8.55;100.00
61769;BME280;47669;48.712;9.016;2022-12-29T07:32:47;95999.44;;;8.39;100.00
61769;BME280;47669;48.712;9.016;2022-12-29T07:35:12;95996.75;;;8.27;100.00
61769;BME280;47669;48.712;9.016;2022-12-29T07:37:38;95998.91;;;8.30;100.00
61769;BME280;47669;48.712;9.016;2022-12-29T07:40:03;95996.53;;;8.29;100.00
61769;BME280;47669;48.712;9.016;2022-12-29T07:42:29;96009.78;;;8.34;100.00
61769;BME280;47669;48.712;9.016;2022-12-29T07:44:55;96006.53;;;8.39;100.00
61769;BME280;47669;48.712;9.016;2022-12-29T07:47:20;96001.81;;;8.66;100.00
61769;BME280;47669;48.712;9.016;2022-12-29T07:49:45;96017.13;;;8.51;100.00
61769;BME280;47669;48.712;9.016;2022-12-29T07:52:11;96008.31;;;8.38;100.00
61769;BME280;47669;48.712;9.016;2022-12-29T07:54:36;95998.56;;;8.27;100.00
61769;BME280;47669;48.712;9.016;2022-12-29T07:57:01;95995.69;;;8.54;100.00
61769;BME280;47669;48.712;9.016;2022-12-29T07:59:26;96013.03;;;8.55;100.00
61769;BME280;47669;48.712;9.016;2022-12-29T08:01:52;96003.06;;;8.38;100.00
61769;BME280;47669;48.712;9.016;2022-12-29T08:04:17;96006.91;;;8.42;100.00
61769;BME280;47669;48.712;9.016;2022-12-29T08:06:43;96005.16;;;8.55;100.00
61769;BME280;47669;48.712;9.016;2022-12-29T08:09:10;96006.28;;;8.40;100.00
61769;BME280;47669;48.712;9.016;2022-12-29T08:11:35;96013.75;;;8.62;100.00
61769;BME280;47669;48.712;9.016;2022-12-29T08:14:01;96022.22;;;8.64;100.00
61769;BME280;47669;48.712;9.016;2022-12-29T08:16:27;96030.81;;;8.71;100.00
61769;BME280;47669;48.712;9.016;2022-12-29T08:18:52;96028.47;;;8.81;100.00
61769;BME280;47669;48.712;9.016;2022-12-29T08:21:17;96031.84;;;8.70;100.00
61769;BME280;47669;48.712;9.016;2022-12-29T08:23:42;96028.56;;;8.75;100.00
61769;BME280;47669;48.712;9.016;2022-12-29T08:26:08;96034.59;;;8.75;100.00
61769;BME280;47669;48.712;9.016;2022-12-29T08:28:33;96032.78;;;8.94;100.00
61769;BME280;47669;48.712;9.016;2022-12-29T08:31:00;96022.88;;;8.78;100.00
61769;BME280;47669;48.712;9.016;2022-12-29T08:33:26;96030.41;;;9.04;100.00
61769;BME280;47669;48.712;9.016;2022-12-29T08:35:51;96024.16;;;8.87;100.00
61769;BME280;47669;48.712;9.016;2022-12-29T08:38:17;96023.00;;;8.83;100.00
61769;BME280;47669;48.712;9.016;2022-12-29T08:40:43;96016.06;;;8.88;100.00
61769;BME280;47669;48.712;9.016;2022-12-29T08:43:08;96013.53;;;8.82;100.00
61769;BME280;47669;48.712;9.016;2022-12-29T08:45:33;96018.34;;;8.85;100.00
61769;BME280;47669;48.712;9.016;2022-12-29T08:47:58;96007.19;;;8.71;100.00
61769;BME280;47669;48.712;9.016;2022-12-29T08:50:24;95996.91;;;8.69;100.00
61769;BME280;47669;48.712;9.016;2022-12-29T08:52:49;96005.22;;;8.85;100.00
61769;BME280;47669;48.712;9.016;2022-12-29T08:55:14;96011.28;;;9.16;100.00
61769;BME280;47669;48.712;9.016;2022-12-29T08:57:40;96009.31;;;9.41;100.00
61769;BME280;47669;48.712;9.016;2022-12-29T09:00:05;96018.03;;;9.42;100.00
61769;BME280;47669;48.712;9.016;2022-12-29T09:02:31;96019.41;;;9.44;100.00
61769;BME280;47669;48.712;9.016;2022-12-29T09:04:56;96021.63;;;9.59;100.00
61769;BME280;47669;48.712;9.016;2022-12-29T09:07:25;96024.97;;;9.78;100.00
61769;BME280;47669;48.712;9.016;2022-12-29T09:09:50;96022.91;;;9.92;100.00
61769;BME280;47669;48.712;9.016;2022-12-29T09:12:16;96034.69;;;9.78;100.00
61769;BME280;47669;48.712;9.016;2022-12-29T09:14:42;96023.84;;;10.10;100.00
61769;BME280;47669;48.712;9.016;2022-12-29T09:17:09;96026.03;;;9.89;100.00
61769;BME280;47669;48.712;9.016;2022-12-29T09:19:53;96030.84;;;10.27;100.00
61769;BME280;47669;48.712;9.016;2022-12-29T09:22:18;96029.97;;;10.45;100.00
61769;BME280;47669;48.712;9.016;2022-12-29T09:24:44;96038.63;;;10.70;100.00
61769;BME280;47669;48.712;9.016;2022-12-29T09:27:09;96035.66;;;10.66;100.00
61769;BME280;47669;48.712;9.016;2022-12-29T09:29:34;96041.47;;;10.92;100.00
61769;BME280;47669;48.712;9.016;2022-12-29T09:32:01;96031.69;;;11.04;100.00
61769;BME280;47669;48.712;9.016;2022-12-29T09:34:26;96042.66;;;11.13;100.00
61769;BME280;47669;48.712;9.016;2022-12-29T09:36:51;96033.22;;;11.29;100.00
61769;BME280;47669;48.712;9.016;2022-12-29T09:39:16;96046.09;;;11.13;100.00
61769;BME280;47669;48.712;9.016;2022-12-29T09:47:20;96045.25;;;11.24;100.00
61769;BME280;47669;48.712;9.016;2022-12-29T09:49:49;96037.94;;;11.27;100.00
61769;BME280;47669;48.712;9.016;2022-12-29T09:52:26;96044.25;;;11.14;100.00
61769;BME280;47669;48.712;9.016;2022-12-29T09:55:02;96045.16;;;11.19;100.00
61769;BME280;47669;48.712;9.016;2022-12-29T09:57:38;96046.09;;;11.42;100.00
61769;BME280;47669;48.712;9.016;2022-12-29T10:00:16;96054.28;;;11.57;100.00
61769;BME280;47669;48.712;9.016;2022-12-29T10:02:44;96049.16;;;11.51;100.00
61769;BME280;47669;48.712;9.016;2022-12-29T10:05:22;96034.00;;;11.29;100.00
61769;BME280;47669;48.712;9.016;2022-12-29T10:10:53;96044.56;;;11.29;100.00
61769;BME280;47669;48.712;9.016;2022-12-29T10:13:41;96048.13;;;11.23;100.00
61769;BME280;47669;48.712;9.016;2022-12-29T10:16:14;96052.91;;;11.26;100.00
61769;BME280;47669;48.712;9.016;2022-12-29T10:19:02;96047.53;;;11.78;100.00
61769;BME280;47669;48.712;9.016;2022-12-29T10:21:50;96039.06;;;11.48;100.00
61769;BME280;47669;48.712;9.016;2022-12-29T10:24:21;96046.38;;;11.57;100.00
61769;BME280;47669;48.712;9.016;2022-12-29T10:26:48;96038.78;;;11.90;100.00
61769;BME280;47669;48.712;9.016;2022-12-29T10:29:19;96045.66;;;12.25;100.00
61769;BME280;47669;48.712;9.016;2022-12-29T10:31:50;96038.56;;;12.64;100.00
61769;BME280;47669;48.712;9.016;2022-12-29T10:34:22;96037.75;;;12.25;100.00
61769;BME280;47669;48.712;9.016;2022-12-29T10:36:54;96032.44;;;11.74;100.00
61769;BME280;47669;48.712;9.016;2022-12-29T10:39:35;96032.06;;;11.99;100.00
61769;BME280;47669;48.712;9.016;2022-12-29T10:42:12;96041.16;;;12.59;100.00
61769;BME280;47669;48.712;9.016;2022-12-29T10:44:38;96036.34;;;12.39;100.00
61769;BME280;47669;48.712;9.016;2022-12-29T10:47:07;96039.28;;;12.76;100.00
61769;BME280;47669;48.712;9.016;2022-12-29T10:49:39;96022.56;;;12.71;100.00
61769;BME280;47669;48.712;9.016;2022-12-29T10:52:06;96025.22;;;12.54;100.00
61769;BME280;47669;48.712;9.016;2022-12-29T10:57:39;96032.56;;;12.13;100.00
61769;BME280;47669;48.712;9.016;2022-12-29T11:00:14;96037.06;;;11.83;100.00
61769;BME280;47669;48.712;9.016;2022-12-29T11:05:52;96033.69;;;11.54;100.00
61769;BME280;47669;48.712;9.016;2022-12-29T11:08:22;96030.28;;;11.42;100.00
61769;BME280;47669;48.712;9.016;2022-12-29T11:11:07;96049.34;;;11.32;100.00
61769;BME280;47669;48.712;9.016;2022-12-29T11:13:50;96047.97;;;11.58;100.00
61769;BME280;47669;48.712;9.016;2022-12-29T11:16:33;96049.91;;;11.92;100.00
61769;BME280;47669;48.712;9.016;2022-12-29T11:19:00;96049.38;;;11.20;100.00
61769;BME280;47669;48.712;9.016;2022-12-29T11:21:34;96045.44;;;11.06;100.00
61769;BME280;47669;48.712;9.016;2022-12-29T11:24:18;96057.69;;;11.00;100.00
61769;BME280;47669;48.712;9.016;2022-12-29T11:26:44;96057.00;;;10.93;100.00
61769;BME280;47669;48.712;9.016;2022-12-29T11:31:46;96085.66;;;10.66;100.00
61769;BME280;47669;48.712;9.016;2022-12-29T11:34:21;96084.63;;;10.79;100.00
61769;BME280;47669;48.712;9.016;2022-12-29T11:36:48;96078.78;;;10.89;100.00
61769;BME280;47669;48.712;9.016;2022-12-29T11:39:29;96080.50;;;10.95;100.00
61769;BME280;47669;48.712;9.016;2022-12-29T11:41:55;96071.78;;;10.94;100.00
61769;BME280;47669;48.712;9.016;2022-12-29T11:44:22;96072.84;;;10.70;100.00
61769;BME280;47669;48.712;9.016;2022-12-29T11:46:50;96069.31;;;10.64;100.00
61769;BME280;47669;48.712;9.016;2022-12-29T11:49:21;96066.56;;;10.59;100.00
61769;BME280;47669;48.712;9.016;2022-12-29T11:51:49;96085.44;;;10.56;100.00
61769;BME280;47669;48.712;9.016;2022-12-29T11:56:50;96067.59;;;10.46;100.00
61769;BME280;47669;48.712;9.016;2022-12-29T11:59:37;96064.84;;;10.41;100.00
61769;BME280;47669;48.712;9.016;2022-12-29T12:05:01;96069.50;;;10.27;100.00
61769;BME280;47669;48.712;9.016;2022-12-29T12:07:40;96069.28;;;10.29;100.00
61769;BME280;47669;48.712;9.016;2022-12-29T12:10:18;96057.75;;;10.30;100.00
61769;BME280;47669;48.712;9.016;2022-12-29T12:15:20;96060.47;;;10.23;100.00
61769;BME280;47669;48.712;9.016;2022-12-29T12:17:55;96058.88;;;10.22;100.00
61769;BME280;47669;48.712;9.016;2022-12-29T12:20:36;96057.84;;;10.23;100.00
61769;BME280;47669;48.712;9.016;2022-12-29T12:23:13;96062.13;;;10.48;100.00
61769;BME280;47669;48.712;9.016;2022-12-29T12:25:47;96061.78;;;10.44;100.00
61769;BME280;47669;48.712;9.016;2022-12-29T12:28:21;96064.03;;;10.29;100.00
61769;BME280;47669;48.712;9.016;2022-12-29T12:30:55;96068.34;;;10.23;100.00
61769;BME280;47669;48.712;9.016;2022-12-29T12:33:27;96060.06;;;10.50;100.00
61769;BME280;47669;48.712;9.016;2022-12-29T12:38:52;96063.63;;;9.90;100.00
61769;BME280;47669;48.712;9.016;2022-12-29T12:41:29;96064.88;;;9.87;100.00
61769;BME280;47669;48.712;9.016;2022-12-29T12:44:29;96072.13;;;10.15;100.00
61769;BME280;47669;48.712;9.016;2022-12-29T12:53:08;96047.50;;;11.04;100.00
61769;BME280;47669;48.712;9.016;2022-12-29T12:58:43;96035.03;;;10.99;100.00
61769;BME280;47669;48.712;9.016;2022-12-29T13:03:44;96033.06;;;11.35;100.00
61769;BME280;47669;48.712;9.016;2022-12-29T13:06:24;96044.13;;;10.56;100.00
61769;BME280;47669;48.712;9.016;2022-12-29T13:14:22;96027.69;;;11.30;100.00
61769;BME280;47669;48.712;9.016;2022-12-29T13:27:28;96026.03;;;10.24;100.00
61769;BME280;47669;48.712;9.016;2022-12-29T13:35:26;96022.63;;;10.24;100.00
61769;BME280;47669;48.712;9.016;2022-12-29T13:37:57;96027.41;;;10.27;100.00
61769;BME280;47669;48.712;9.016;2022-12-29T13:40:26;96023.53;;;10.30;100.00
61769;BME280;47669;48.712;9.016;2022-12-29T13:42:56;96022.88;;;10.34;100.00
61769;BME280;47669;48.712;9.016;2022-12-29T13:45:28;96029.63;;;10.42;100.00
61769;BME280;47669;48.712;9.016;2022-12-29T13:48:03;96021.03;;;10.35;100.00
61769;BME280;47669;48.712;9.016;2022-12-29T13:50:35;96027.75;;;10.19;100.00
61769;BME280;47669;48.712;9.016;2022-12-29T13:55:40;96024.56;;;10.17;100.00
61769;BME280;47669;48.712;9.016;2022-12-29T14:01:16;96018.16;;;10.36;100.00
61769;BME280;47669;48.712;9.016;2022-12-29T14:06:15;96022.75;;;10.64;100.00
61769;BME280;47669;48.712;9.016;2022-12-29T14:08:42;96014.28;;;10.39;100.00
61769;BME280;47669;48.712;9.016;2022-12-29T14:11:11;96029.94;;;10.22;100.00
61769;BME280;47669;48.712;9.016;2022-12-29T14:13:41;96031.41;;;10.06;100.00
61769;BME280;47669;48.712;9.016;2022-12-29T14:16:23;96030.94;;;9.97;100.00
61769;BME280;47669;48.712;9.016;2022-12-29T14:18:50;96032.78;;;9.97;100.00
61769;BME280;47669;48.712;9.016;2022-12-29T14:23:46;96028.22;;;10.16;100.00
61769;BME280;47669;48.712;9.016;2022-12-29T14:26:15;96030.50;;;10.24;100.00
61769;BME280;47669;48.712;9.016;2022-12-29T14:28:46;96025.59;;;10.04;100.00
61769;BME280;47669;48.712;9.016;2022-12-29T14:33:40;96022.59;;;9.89;100.00
61769;BME280;47669;48.712;9.016;2022-12-29T14:36:21;96031.06;;;9.91;100.00
61769;BME280;47669;48.712;9.016;2022-12-29T14:38:49;96045.09;;;9.84;100.00
61769;BME280;47669;48.712;9.016;2022-12-29T14:41:17;96039.81;;;9.84;100.00
61769;BME280;47669;48.712;9.016;2022-12-29T14:43:56;96038.47;;;9.82;100.00
61769;BME280;47669;48.712;9.016;2022-12-29T14:46:22;96040.44;;;9.86;100.00
61769;BME280;47669;48.712;9.016;2022-12-29T14:48:55;96041.56;;;9.79;100.00
61769;BME280;47669;48.712;9.016;2022-12-29T14:51:30;96040.38;;;9.75;100.00
61769;BME280;47669;48.712;9.016;2022-12-29T14:53:56;96038.66;;;9.68;100.00
61769;BME280;47669;48.712;9.016;2022-12-29T14:56:27;96038.22;;;9.72;100.00